sensor_id;sensor_type;location;lat;lon;timestamp;pressure;altitude;pressure_sealevel;temperature;humidity
15260;BME280;34462;51.368;12.364;2023-11-22T00:01:10;18586.50;;;-141.84;75.33
15260;BME280;34462;51.368;12.364;2023-11-22T00:03:39;18584.47;;;-141.84;76.18
15260;BME280;34462;51.368;12.364;2023-11-22T00:06:09;18586.50;;;-141.84;75.38
15260;BME280;34462;51.368;12.364;2023-11-22T00:08:38;18549.91;;;-141.84;73.84
15260;BME280;34462;51.368;12.364;2023-11-22T00:11:07;18578.38;;;-141.84;74.89
15260;BME280;34462;51.368;12.364;2023-11-22T00:13:38;18537.72;;;-141.84;76.86
15260;BME280;34462;51.368;12.364;2023-11-22T00:16:08;18572.25;;;-141.84;74.78
15260;BME280;34462;51.368;12.364;2023-11-22T00:18:38;18580.41;;;-141.84;75.27
15260;BME280;34462;51.368;12.364;2023-11-22T00:21:08;18594.63;;;-141.84;73.49
15260;BME280;34462;51.368;12.364;2023-11-22T00:23:38;18570.22;;;-141.84;73.08
15260;BME280;34462;51.368;12.364;2023-11-22T00:26:07;18578.38;;;-141.84;72.75
15260;BME280;34462;51.368;12.364;2023-11-22T00:28:37;18545.84;;;-141.84;73.51
15260;BME280;34462;51.368;12.364;2023-11-22T00:31:07;18564.13;;;-141.84;73.44
15260;BME280;34462;51.368;12.364;2023-11-22T00:33:37;18562.09;;;-141.84;76.00
15260;BME280;34462;51.368;12.364;2023-11-22T00:36:06;18551.94;;;-141.84;75.56
15260;BME280;34462;51.368;12.364;2023-11-22T00:38:36;18566.16;;;-141.84;75.89
15260;BME280;34462;51.368;12.364;2023-11-22T00:41:05;18574.28;;;-141.84;73.51
15260;BME280;34462;51.368;12.364;2023-11-22T00:43:35;18584.47;;;-141.84;74.89
15260;BME280;34462;51.368;12.364;2023-11-22T00:46:06;18553.97;;;-141.84;72.48
15260;BME280;34462;51.368;12.364;2023-11-22T00:48:36;18562.09;;;-141.84;72.97
15260;BME280;34462;51.368;12.364;2023-11-22T00:51:06;18556.00;;;-141.84;73.10
15260;BME280;34462;51.368;12.364;2023-11-22T00:53:38;18560.06;;;-141.84;70.94
15260;BME280;34462;51.368;12.364;2023-11-22T00:56:08;18539.75;;;-141.84;72.18
15260;BME280;34462;51.368;12.364;2023-11-22T00:58:46;18564.13;;;-141.84;71.97
15260;BME280;34462;51.368;12.364;2023-11-22T01:01:19;18566.16;;;-141.84;73.80
15260;BME280;34462;51.368;12.364;2023-11-22T01:03:48;18517.41;;;-141.84;75.25
15260;BME280;34462;51.368;12.364;2023-11-22T01:06:16;18574.28;;;-141.84;75.60
15260;BME280;34462;51.368;12.364;2023-11-22T01:08:46;18535.69;;;-141.84;74.64
15260;BME280;34462;51.368;12.364;2023-11-22T01:11:19;18523.50;;;-141.84;74.62
15260;BME280;34462;51.368;12.364;2023-11-22T01:13:52;18584.47;;;-141.84;76.47
15260;BME280;34462;51.368;12.364;2023-11-22T01:16:54;18584.47;;;-141.84;74.15
15260;BME280;34462;51.368;12.364;2023-11-22T01:19:23;18525.53;;;-141.84;76.72
15260;BME280;34462;51.368;12.364;2023-11-22T01:21:54;18568.19;;;-141.84;76.33
15260;BME280;34462;51.368;12.364;2023-11-22T01:24:23;18556.00;;;-141.84;76.54
15260;BME280;34462;51.368;12.364;2023-11-22T01:26:54;18616.97;;;-141.84;77.03
15260;BME280;34462;51.368;12.364;2023-11-22T01:29:23;18588.53;;;-141.84;76.63
15260;BME280;34462;51.368;12.364;2023-11-22T01:31:53;18586.50;;;-141.84;77.36
15260;BME280;34462;51.368;12.364;2023-11-22T01:34:22;18582.44;;;-141.84;76.49
15260;BME280;34462;51.368;12.364;2023-11-22T01:36:51;18614.94;;;-141.84;77.07
15260;BME280;34462;51.368;12.364;2023-11-22T01:39:21;18588.53;;;-141.84;77.53
15260;BME280;34462;51.368;12.364;2023-11-22T01:41:49;18598.69;;;-141.84;79.40
15260;BME280;34462;51.368;12.364;2023-11-22T01:44:17;18635.25;;;-141.84;81.08
15260;BME280;34462;51.368;12.364;2023-11-22T01:46:47;18639.31;;;-141.84;80.56
15260;BME280;34462;51.368;12.364;2023-11-22T01:49:23;18629.16;;;-141.84;81.39
15260;BME280;34462;51.368;12.364;2023-11-22T01:51:52;18625.09;;;-141.84;81.52
15260;BME280;34462;51.368;12.364;2023-11-22T01:54:21;18704.31;;;-141.84;84.27
15260;BME280;34462;51.368;12.364;2023-11-22T01:56:51;18736.84;;;-141.84;85.41
15260;BME280;34462;51.368;12.364;2023-11-22T01:59:19;18793.72;;;-141.84;86.40
15260;BME280;34462;51.368;12.364;2023-11-22T02:01:49;18875.00;;;-141.84;87.35
15260;BME280;34462;51.368;12.364;2023-11-22T02:04:19;18887.19;;;-141.84;87.17
15260;BME280;34462;51.368;12.364;2023-11-22T02:06:48;18885.16;;;-141.84;87.95
15260;BME280;34462;51.368;12.364;2023-11-22T02:09:17;18868.91;;;-141.84;87.90
15260;BME280;34462;51.368;12.364;2023-11-22T02:11:46;18840.47;;;-141.84;87.30
15260;BME280;34462;51.368;12.364;2023-11-22T02:14:16;18710.44;;;-141.84;84.73
15260;BME280;34462;51.368;12.364;2023-11-22T02:16:45;18744.97;;;-141.84;86.16
15260;BME280;34462;51.368;12.364;2023-11-22T02:19:15;18972.53;;;-141.84;89.46
15260;BME280;34462;51.368;12.364;2023-11-22T02:21:45;19500.88;;;-141.84;91.93
15260;BME280;34462;51.368;12.364;2023-11-22T02:24:15;19549.63;;;-141.84;91.78
15260;BME280;34462;51.368;12.364;2023-11-22T02:26:44;19578.09;;;-141.84;91.53
15260;BME280;34462;51.368;12.364;2023-11-22T02:29:13;19102.56;;;-141.84;89.36
15260;BME280;34462;51.368;12.364;2023-11-22T02:31:43;18842.50;;;-141.84;87.35
15260;BME280;34462;51.368;12.364;2023-11-22T02:34:11;18767.31;;;-141.84;86.43
15260;BME280;34462;51.368;12.364;2023-11-22T02:36:42;18765.28;;;-141.84;86.86
15260;BME280;34462;51.368;12.364;2023-11-22T02:39:32;18982.69;;;-141.84;89.25
15260;BME280;34462;51.368;12.364;2023-11-22T02:42:04;18996.91;;;-141.84;89.75
15260;BME280;34462;51.368;12.364;2023-11-22T02:44:33;19421.63;;;-141.84;91.55
15260;BME280;34462;51.368;12.364;2023-11-22T02:47:01;19350.50;;;-141.84;91.41
15260;BME280;34462;51.368;12.364;2023-11-22T02:49:30;19693.94;;;-141.84;91.86
15260;BME280;34462;51.368;12.364;2023-11-22T02:51:58;19212.31;;;-141.84;90.41
15260;BME280;34462;51.368;12.364;2023-11-22T02:54:29;19057.88;;;-141.84;89.54
15260;BME280;34462;51.368;12.364;2023-11-22T02:56:58;19074.13;;;-141.84;90.07
15260;BME280;34462;51.368;12.364;2023-11-22T02:59:27;19088.34;;;-141.84;89.59
15260;BME280;34462;51.368;12.364;2023-11-22T03:01:56;19163.53;;;-141.84;90.52
15260;BME280;34462;51.368;12.364;2023-11-22T03:04:24;19246.84;;;-141.84;90.88
15260;BME280;34462;51.368;12.364;2023-11-22T03:06:53;18960.34;;;-141.84;88.95
15260;BME280;34462;51.368;12.364;2023-11-22T03:09:22;19263.09;;;-141.84;91.23
15260;BME280;34462;51.368;12.364;2023-11-22T03:11:52;20366.69;;;-141.84;93.65
15260;BME280;34462;51.368;12.364;2023-11-22T03:14:21;19868.72;;;-141.84;92.60
15260;BME280;34462;51.368;12.364;2023-11-22T03:16:50;19785.38;;;-141.84;92.35
15260;BME280;34462;51.368;12.364;2023-11-22T03:19:18;19151.34;;;-141.84;90.32
15260;BME280;34462;51.368;12.364;2023-11-22T03:21:47;19025.38;;;-141.84;89.97
15260;BME280;34462;51.368;12.364;2023-11-22T03:24:16;19350.50;;;-141.84;91.43
15260;BME280;34462;51.368;12.364;2023-11-22T03:26:44;19474.44;;;-141.84;91.87
15260;BME280;34462;51.368;12.364;2023-11-22T03:29:16;19159.47;;;-141.84;89.88
15260;BME280;34462;51.368;12.364;2023-11-22T03:31:45;19240.75;;;-141.84;91.26
15260;BME280;34462;51.368;12.364;2023-11-22T03:34:14;19289.53;;;-141.84;90.93
15260;BME280;34462;51.368;12.364;2023-11-22T03:36:43;19283.44;;;-141.84;91.26
15260;BME280;34462;51.368;12.364;2023-11-22T03:39:12;19561.84;;;-141.84;91.79
15260;BME280;34462;51.368;12.364;2023-11-22T03:41:41;19817.91;;;-141.84;92.97
15260;BME280;34462;51.368;12.364;2023-11-22T03:44:10;19238.72;;;-141.84;90.61
15260;BME280;34462;51.368;12.364;2023-11-22T03:46:40;19208.25;;;-141.84;91.08
15260;BME280;34462;51.368;12.364;2023-11-22T03:49:09;20506.94;;;-141.84;94.43
15260;BME280;34462;51.368;12.364;2023-11-22T03:51:39;22235.13;;;-141.84;95.79
15260;BME280;34462;51.368;12.364;2023-11-22T03:54:07;21031.41;;;-141.84;94.74
15260;BME280;34462;51.368;12.364;2023-11-22T03:56:37;23522.63;;;-141.84;96.82
15260;BME280;34462;51.368;12.364;2023-11-22T03:59:05;24491.06;;;-141.84;96.43
15260;BME280;34462;51.368;12.364;2023-11-22T04:01:34;19145.25;;;-141.84;89.89
15260;BME280;34462;51.368;12.364;2023-11-22T04:04:05;19098.50;;;-141.84;90.58
15260;BME280;34462;51.368;12.364;2023-11-22T04:06:33;18958.31;;;-141.84;89.53
15260;BME280;34462;51.368;12.364;2023-11-22T04:09:02;19005.03;;;-141.84;89.77
15260;BME280;34462;51.368;12.364;2023-11-22T04:11:30;19139.16;;;-141.84;90.89
15260;BME280;34462;51.368;12.364;2023-11-22T04:13:59;19307.81;;;-141.84;91.44
15260;BME280;34462;51.368;12.364;2023-11-22T04:16:28;19492.75;;;-141.84;91.76
15260;BME280;34462;51.368;12.364;2023-11-22T04:18:57;20033.34;;;-141.84;93.77
15260;BME280;34462;51.368;12.364;2023-11-22T04:21:27;20671.59;;;-141.84;94.24
15260;BME280;34462;51.368;12.364;2023-11-22T04:23:55;19769.13;;;-141.84;93.01
15260;BME280;34462;51.368;12.364;2023-11-22T04:26:24;20098.38;;;-141.84;93.47
15260;BME280;34462;51.368;12.364;2023-11-22T04:28:53;20513.03;;;-141.84;94.11
15260;BME280;34462;51.368;12.364;2023-11-22T04:31:22;20817.94;;;-141.84;94.85
15260;BME280;34462;51.368;12.364;2023-11-22T04:33:50;21903.66;;;-141.84;95.28
15260;BME280;34462;51.368;12.364;2023-11-22T04:36:19;20602.47;;;-141.84;94.08
15260;BME280;34462;51.368;12.364;2023-11-22T04:38:53;21472.59;;;-141.84;95.28
15260;BME280;34462;51.368;12.364;2023-11-22T04:41:21;22513.75;;;-141.84;95.46
15260;BME280;34462;51.368;12.364;2023-11-22T04:43:52;19214.34;;;-141.84;90.69
15260;BME280;34462;51.368;12.364;2023-11-22T04:46:20;18872.97;;;-141.84;88.80
15260;BME280;34462;51.368;12.364;2023-11-22T04:48:50;18846.56;;;-141.84;88.84
15260;BME280;34462;51.368;12.364;2023-11-22T04:51:19;19000.97;;;-141.84;90.39
15260;BME280;34462;51.368;12.364;2023-11-22T04:53:48;19035.53;;;-141.84;90.53
15260;BME280;34462;51.368;12.364;2023-11-22T04:56:17;19616.72;;;-141.84;92.59
15260;BME280;34462;51.368;12.364;2023-11-22T04:58:46;20281.31;;;-141.84;93.88
15260;BME280;34462;51.368;12.364;2023-11-22T05:01:15;23189.00;;;-141.84;96.75
15260;BME280;34462;51.368;12.364;2023-11-22T05:03:47;21261.16;;;-141.84;94.46
15260;BME280;34462;51.368;12.364;2023-11-22T05:06:16;20137.00;;;-141.84;93.43
15260;BME280;34462;51.368;12.364;2023-11-22T05:08:44;19519.16;;;-141.84;92.39
15260;BME280;34462;51.368;12.364;2023-11-22T05:11:13;19413.47;;;-141.84;91.69
15260;BME280;34462;51.368;12.364;2023-11-22T05:13:44;19521.19;;;-141.84;92.45
15260;BME280;34462;51.368;12.364;2023-11-22T05:16:12;19474.44;;;-141.84;92.19
15260;BME280;34462;51.368;12.364;2023-11-22T05:18:41;19131.03;;;-141.84;90.57
15260;BME280;34462;51.368;12.364;2023-11-22T05:21:09;19015.19;;;-141.84;90.16
15260;BME280;34462;51.368;12.364;2023-11-22T05:23:38;18879.06;;;-141.84;88.85
15260;BME280;34462;51.368;12.364;2023-11-22T05:26:09;18826.25;;;-141.84;88.68
15260;BME280;34462;51.368;12.364;2023-11-22T05:28:38;18870.94;;;-141.84;89.27
15260;BME280;34462;51.368;12.364;2023-11-22T05:31:07;18966.44;;;-141.84;90.25
15260;BME280;34462;51.368;12.364;2023-11-22T05:33:39;19466.31;;;-141.84;92.51
15260;BME280;34462;51.368;12.364;2023-11-22T05:36:08;19683.78;;;-141.84;92.99
15260;BME280;34462;51.368;12.364;2023-11-22T05:38:38;20354.47;;;-141.84;94.37
15260;BME280;34462;51.368;12.364;2023-11-22T05:41:06;21196.09;;;-141.84;94.88
15260;BME280;34462;51.368;12.364;2023-11-22T05:43:34;21720.66;;;-141.84;95.75
15260;BME280;34462;51.368;12.364;2023-11-22T05:46:03;22180.22;;;-141.84;95.67
15260;BME280;34462;51.368;12.364;2023-11-22T05:48:33;21027.34;;;-141.84;94.82
15260;BME280;34462;51.368;12.364;2023-11-22T05:51:01;20254.88;;;-141.84;93.38
15260;BME280;34462;51.368;12.364;2023-11-22T05:53:29;20171.56;;;-141.84;93.79
15260;BME280;34462;51.368;12.364;2023-11-22T05:55:57;20598.41;;;-141.84;93.98
15260;BME280;34462;51.368;12.364;2023-11-22T05:58:26;20724.44;;;-141.84;95.02
15260;BME280;34462;51.368;12.364;2023-11-22T06:00:54;24114.66;;;-141.84;97.23
15260;BME280;34462;51.368;12.364;2023-11-22T06:03:22;25824.09;;;-141.84;97.64
15260;BME280;34462;51.368;12.364;2023-11-22T06:05:52;25282.69;;;-141.84;97.05
15260;BME280;34462;51.368;12.364;2023-11-22T06:08:20;24165.50;;;-141.84;96.93
15260;BME280;34462;51.368;12.364;2023-11-22T06:10:48;23010.00;;;-141.84;96.13
15260;BME280;34462;51.368;12.364;2023-11-22T06:13:17;21777.59;;;-141.84;95.33
15260;BME280;34462;51.368;12.364;2023-11-22T06:15:46;20500.84;;;-141.84;94.44
15260;BME280;34462;51.368;12.364;2023-11-22T06:18:14;20035.38;;;-141.84;93.16
15260;BME280;34462;51.368;12.364;2023-11-22T06:20:43;19673.59;;;-141.84;92.45
15260;BME280;34462;51.368;12.364;2023-11-22T06:23:12;19732.53;;;-141.84;92.90
15260;BME280;34462;51.368;12.364;2023-11-22T06:25:41;20061.78;;;-141.84;93.52
15260;BME280;34462;51.368;12.364;2023-11-22T06:28:10;19346.44;;;-141.84;91.64
15260;BME280;34462;51.368;12.364;2023-11-22T06:30:39;19059.91;;;-141.84;90.25
15260;BME280;34462;51.368;12.364;2023-11-22T06:33:07;18828.28;;;-141.84;88.07
15260;BME280;34462;51.368;12.364;2023-11-22T06:35:36;18692.13;;;-141.84;86.53
15260;BME280;34462;51.368;12.364;2023-11-22T06:38:06;18708.41;;;-141.84;87.67
15260;BME280;34462;51.368;12.364;2023-11-22T06:40:38;18980.66;;;-141.84;90.22
15260;BME280;34462;51.368;12.364;2023-11-22T06:43:09;18911.56;;;-141.84;89.07
15260;BME280;34462;51.368;12.364;2023-11-22T06:45:37;18799.81;;;-141.84;88.07
15260;BME280;34462;51.368;12.364;2023-11-22T06:48:08;18704.31;;;-141.84;87.20
15260;BME280;34462;51.368;12.364;2023-11-22T06:50:37;18769.34;;;-141.84;88.61
15260;BME280;34462;51.368;12.364;2023-11-22T06:53:05;18940.03;;;-141.84;89.47
15260;BME280;34462;51.368;12.364;2023-11-22T06:55:35;18809.97;;;-141.84;87.90
15260;BME280;34462;51.368;12.364;2023-11-22T06:58:03;18627.13;;;-141.84;85.16
15260;BME280;34462;51.368;12.364;2023-11-22T07:00:32;18566.16;;;-141.84;84.08
15260;BME280;34462;51.368;12.364;2023-11-22T07:03:00;18570.22;;;-141.84;84.61
15260;BME280;34462;51.368;12.364;2023-11-22T07:05:29;18671.81;;;-141.84;86.32
15260;BME280;34462;51.368;12.364;2023-11-22T07:07:58;18704.31;;;-141.84;87.06
15260;BME280;34462;51.368;12.364;2023-11-22T07:10:26;18692.13;;;-141.84;86.59
15260;BME280;34462;51.368;12.364;2023-11-22T07:12:55;18592.59;;;-141.84;83.94
15260;BME280;34462;51.368;12.364;2023-11-22T07:15:24;18651.50;;;-141.84;85.98
15260;BME280;34462;51.368;12.364;2023-11-22T07:17:53;18712.47;;;-141.84;87.83
15260;BME280;34462;51.368;12.364;2023-11-22T07:20:23;18868.91;;;-141.84;89.42
15260;BME280;34462;51.368;12.364;2023-11-22T07:22:54;19165.56;;;-141.84;91.51
15260;BME280;34462;51.368;12.364;2023-11-22T07:25:24;19151.34;;;-141.84;91.47
15260;BME280;34462;51.368;12.364;2023-11-22T07:27:54;19108.69;;;-141.84;90.82
15260;BME280;34462;51.368;12.364;2023-11-22T07:30:22;19194.03;;;-141.84;90.92
15260;BME280;34462;51.368;12.364;2023-11-22T07:32:54;18909.53;;;-141.84;89.22
15260;BME280;34462;51.368;12.364;2023-11-22T07:35:22;18753.09;;;-141.84;87.64
15260;BME280;34462;51.368;12.364;2023-11-22T07:37:50;18712.47;;;-141.84;87.31
15260;BME280;34462;51.368;12.364;2023-11-22T07:40:19;18686.03;;;-141.84;86.75
15260;BME280;34462;51.368;12.364;2023-11-22T07:42:49;18551.94;;;-141.84;82.90
15260;BME280;34462;51.368;12.364;2023-11-22T07:45:18;18503.19;;;-141.84;80.39
15260;BME280;34462;51.368;12.364;2023-11-22T07:47:47;18523.50;;;-141.84;80.83
15260;BME280;34462;51.368;12.364;2023-11-22T07:50:16;18503.19;;;-141.84;79.20
15260;BME280;34462;51.368;12.364;2023-11-22T07:52:44;18523.50;;;-141.84;81.11
15260;BME280;34462;51.368;12.364;2023-11-22T07:55:12;18519.44;;;-141.84;79.69
15260;BME280;34462;51.368;12.364;2023-11-22T07:57:40;18537.72;;;-141.84;80.53
15260;BME280;34462;51.368;12.364;2023-11-22T08:00:12;18493.03;;;-141.84;79.61
15260;BME280;34462;51.368;12.364;2023-11-22T08:02:42;18521.47;;;-141.84;80.03
15260;BME280;34462;51.368;12.364;2023-11-22T08:05:10;18488.97;;;-141.84;80.00
15260;BME280;34462;51.368;12.364;2023-11-22T08:07:39;18515.38;;;-141.84;79.32
15260;BME280;34462;51.368;12.364;2023-11-22T08:10:09;18539.75;;;-141.84;77.32
15260;BME280;34462;51.368;12.364;2023-11-22T08:12:47;18543.81;;;-141.84;78.27
15260;BME280;34462;51.368;12.364;2023-11-22T08:15:17;18535.69;;;-141.84;79.60
15260;BME280;34462;51.368;12.364;2023-11-22T08:17:48;18513.34;;;-141.84;78.54
15260;BME280;34462;51.368;12.364;2023-11-22T08:20:16;18511.31;;;-141.84;78.73
15260;BME280;34462;51.368;12.364;2023-11-22T08:22:46;18519.44;;;-141.84;77.03
15260;BME280;34462;51.368;12.364;2023-11-22T08:25:17;18495.06;;;-141.84;76.19
15260;BME280;34462;51.368;12.364;2023-11-22T08:27:45;18497.09;;;-141.84;75.61
15260;BME280;34462;51.368;12.364;2023-11-22T08:30:14;18493.03;;;-141.84;76.26
15260;BME280;34462;51.368;12.364;2023-11-22T08:32:44;18513.34;;;-141.84;75.80
15260;BME280;34462;51.368;12.364;2023-11-22T08:35:16;18509.28;;;-141.84;76.38
15260;BME280;34462;51.368;12.364;2023-11-22T08:37:44;18513.34;;;-141.84;77.88
15260;BME280;34462;51.368;12.364;2023-11-22T08:40:14;18497.09;;;-141.84;76.25
15260;BME280;34462;51.368;12.364;2023-11-22T08:42:42;18509.28;;;-141.84;75.79
15260;BME280;34462;51.368;12.364;2023-11-22T08:45:11;18513.34;;;-141.84;76.10
15260;BME280;34462;51.368;12.364;2023-11-22T08:47:40;18529.59;;;-141.84;76.01
15260;BME280;34462;51.368;12.364;2023-11-22T08:50:09;18521.47;;;-141.84;76.86
15260;BME280;34462;51.368;12.364;2023-11-22T08:52:40;18519.44;;;-141.84;73.23
15260;BME280;34462;51.368;12.364;2023-11-22T08:55:09;18501.16;;;-141.84;74.25
15260;BME280;34462;51.368;12.364;2023-11-22T08:57:38;18515.38;;;-141.84;72.98
15260;BME280;34462;51.368;12.364;2023-11-22T09:00:09;18505.22;;;-141.84;74.77
15260;BME280;34462;51.368;12.364;2023-11-22T09:02:38;18537.72;;;-141.84;76.84
15260;BME280;34462;51.368;12.364;2023-11-22T09:05:08;18517.41;;;-141.84;76.21
15260;BME280;34462;51.368;12.364;2023-11-22T09:07:36;18525.53;;;-141.84;73.82
15260;BME280;34462;51.368;12.364;2023-11-22T09:10:08;18529.59;;;-141.84;70.78
15260;BME280;34462;51.368;12.364;2023-11-22T09:12:40;18521.47;;;-141.84;72.29
15260;BME280;34462;51.368;12.364;2023-11-22T09:15:10;18529.59;;;-141.84;70.91
15260;BME280;34462;51.368;12.364;2023-11-22T09:17:42;18539.75;;;-141.84;72.19
15260;BME280;34462;51.368;12.364;2023-11-22T09:20:12;18501.16;;;-141.84;70.74
15260;BME280;34462;51.368;12.364;2023-11-22T09:22:44;18537.72;;;-141.84;72.06
15260;BME280;34462;51.368;12.364;2023-11-22T09:25:20;18545.84;;;-141.84;71.97
15260;BME280;34462;51.368;12.364;2023-11-22T09:27:52;18511.31;;;-141.84;72.05
15260;BME280;34462;51.368;12.364;2023-11-22T09:30:25;18533.66;;;-141.84;72.34
15260;BME280;34462;51.368;12.364;2023-11-22T09:33:06;18509.28;;;-141.84;71.99
15260;BME280;34462;51.368;12.364;2023-11-22T09:35:37;18527.56;;;-141.84;71.66
15260;BME280;34462;51.368;12.364;2023-11-22T09:38:08;18568.19;;;-141.84;70.93
15260;BME280;34462;51.368;12.364;2023-11-22T09:40:43;18519.44;;;-141.84;71.63
15260;BME280;34462;51.368;12.364;2023-11-22T09:43:14;18562.09;;;-141.84;69.17
15260;BME280;34462;51.368;12.364;2023-11-22T09:45:45;18517.41;;;-141.84;69.25
15260;BME280;34462;51.368;12.364;2023-11-22T09:48:18;18537.72;;;-141.84;69.06
15260;BME280;34462;51.368;12.364;2023-11-22T09:50:57;18488.97;;;-141.84;70.20
15260;BME280;34462;51.368;12.364;2023-11-22T09:53:32;18537.72;;;-141.84;70.53
15260;BME280;34462;51.368;12.364;2023-11-22T09:56:03;18537.72;;;-141.84;71.74
15260;BME280;34462;51.368;12.364;2023-11-22T09:58:35;18553.97;;;-141.84;68.61
15260;BME280;34462;51.368;12.364;2023-11-22T10:01:04;18584.47;;;-141.84;66.96
15260;BME280;34462;51.368;12.364;2023-11-22T10:03:34;18533.66;;;-141.84;67.96
15260;BME280;34462;51.368;12.364;2023-11-22T10:06:03;18633.22;;;-141.84;67.38
15260;BME280;34462;51.368;12.364;2023-11-22T10:08:33;18570.22;;;-141.84;68.15
15260;BME280;34462;51.368;12.364;2023-11-22T10:11:04;18545.84;;;-141.84;66.88
15260;BME280;34462;51.368;12.364;2023-11-22T10:13:34;18541.78;;;-141.84;66.84
15260;BME280;34462;51.368;12.364;2023-11-22T10:16:10;18549.91;;;-141.84;67.96
15260;BME280;34462;51.368;12.364;2023-11-22T10:18:43;18564.13;;;-141.84;69.02
15260;BME280;34462;51.368;12.364;2023-11-22T10:21:22;18558.03;;;-141.84;66.28
15260;BME280;34462;51.368;12.364;2023-11-22T10:23:54;18576.31;;;-141.84;65.79
15260;BME280;34462;51.368;12.364;2023-11-22T10:26:25;18614.94;;;-141.84;64.27
15260;BME280;34462;51.368;12.364;2023-11-22T10:28:57;18570.22;;;-141.84;64.88
15260;BME280;34462;51.368;12.364;2023-11-22T10:31:26;18590.56;;;-141.84;66.33
15260;BME280;34462;51.368;12.364;2023-11-22T10:33:55;18566.16;;;-141.84;65.38
15260;BME280;34462;51.368;12.364;2023-11-22T10:36:25;18580.41;;;-141.84;64.83
15260;BME280;34462;51.368;12.364;2023-11-22T10:38:54;18572.25;;;-141.84;65.14
15260;BME280;34462;51.368;12.364;2023-11-22T10:41:22;18598.69;;;-141.84;65.25
15260;BME280;34462;51.368;12.364;2023-11-22T10:43:53;18612.91;;;-141.84;64.39
15260;BME280;34462;51.368;12.364;2023-11-22T10:46:28;18564.13;;;-141.84;65.16
15260;BME280;34462;51.368;12.364;2023-11-22T10:48:58;18621.03;;;-141.84;65.37
15260;BME280;34462;51.368;12.364;2023-11-22T10:51:30;18572.25;;;-141.84;65.46
15260;BME280;34462;51.368;12.364;2023-11-22T10:54:01;18574.28;;;-141.84;66.59
15260;BME280;34462;51.368;12.364;2023-11-22T10:56:36;18604.78;;;-141.84;64.32
15260;BME280;34462;51.368;12.364;2023-11-22T10:59:13;18623.06;;;-141.84;64.48
15260;BME280;34462;51.368;12.364;2023-11-22T11:01:45;18537.72;;;-141.84;66.07
15260;BME280;34462;51.368;12.364;2023-11-22T11:04:21;18586.50;;;-141.84;66.42
15260;BME280;34462;51.368;12.364;2023-11-22T11:06:54;18562.09;;;-141.84;67.89
15260;BME280;34462;51.368;12.364;2023-11-22T11:09:24;18594.63;;;-141.84;67.44
15260;BME280;34462;51.368;12.364;2023-11-22T11:11:57;18592.59;;;-141.84;68.35
15260;BME280;34462;51.368;12.364;2023-11-22T11:14:27;18568.19;;;-141.84;66.43
15260;BME280;34462;51.368;12.364;2023-11-22T11:16:56;18614.94;;;-141.84;66.75
15260;BME280;34462;51.368;12.364;2023-11-22T11:19:25;18623.06;;;-141.84;66.17
15260;BME280;34462;51.368;12.364;2023-11-22T11:21:55;18619.00;;;-141.84;63.47
15260;BME280;34462;51.368;12.364;2023-11-22T11:24:25;18619.00;;;-141.84;64.77
15260;BME280;34462;51.368;12.364;2023-11-22T11:26:53;18598.69;;;-141.84;65.05
15260;BME280;34462;51.368;12.364;2023-11-22T11:29:34;18614.94;;;-141.84;63.52
15260;BME280;34462;51.368;12.364;2023-11-22T11:32:04;18562.09;;;-141.84;65.60
15260;BME280;34462;51.368;12.364;2023-11-22T11:34:47;18588.53;;;-141.84;66.68
15260;BME280;34462;51.368;12.364;2023-11-22T11:37:19;18614.94;;;-141.84;66.61
15260;BME280;34462;51.368;12.364;2023-11-22T11:39:48;18606.81;;;-141.84;64.55
15260;BME280;34462;51.368;12.364;2023-11-22T11:42:16;18619.00;;;-141.84;65.59
15260;BME280;34462;51.368;12.364;2023-11-22T11:45:04;18602.75;;;-141.84;67.68
15260;BME280;34462;51.368;12.364;2023-11-22T11:47:34;18590.56;;;-141.84;66.88
15260;BME280;34462;51.368;12.364;2023-11-22T11:50:03;18558.03;;;-141.84;66.91
15260;BME280;34462;51.368;12.364;2023-11-22T11:52:31;18584.47;;;-141.84;68.69
15260;BME280;34462;51.368;12.364;2023-11-22T11:55:00;18584.47;;;-141.84;68.60
15260;BME280;34462;51.368;12.364;2023-11-22T11:57:31;18558.03;;;-141.84;68.51
15260;BME280;34462;51.368;12.364;2023-11-22T12:00:01;18570.22;;;-141.84;69.25
15260;BME280;34462;51.368;12.364;2023-11-22T12:02:32;18578.38;;;-141.84;70.36
15260;BME280;34462;51.368;12.364;2023-11-22T12:05:01;18551.94;;;-141.84;70.60
15260;BME280;34462;51.368;12.364;2023-11-22T12:07:35;18578.38;;;-141.84;70.25
15260;BME280;34462;51.368;12.364;2023-11-22T12:10:04;18572.25;;;-141.84;71.00
15260;BME280;34462;51.368;12.364;2023-11-22T12:12:34;18584.47;;;-141.84;69.62
15260;BME280;34462;51.368;12.364;2023-11-22T12:15:08;18588.53;;;-141.84;68.87
15260;BME280;34462;51.368;12.364;2023-11-22T12:17:38;18566.16;;;-141.84;68.29
15260;BME280;34462;51.368;12.364;2023-11-22T12:20:12;18576.31;;;-141.84;68.14
15260;BME280;34462;51.368;12.364;2023-11-22T12:22:45;18584.47;;;-141.84;68.99
15260;BME280;34462;51.368;12.364;2023-11-22T12:25:14;18572.25;;;-141.84;70.23
15260;BME280;34462;51.368;12.364;2023-11-22T12:27:44;18576.31;;;-141.84;68.15
15260;BME280;34462;51.368;12.364;2023-11-22T12:33:10;18614.94;;;-141.84;69.64
15260;BME280;34462;51.368;12.364;2023-11-22T12:35:48;18604.78;;;-141.84;69.46
15260;BME280;34462;51.368;12.364;2023-11-22T12:38:17;18596.66;;;-141.84;69.15
15260;BME280;34462;51.368;12.364;2023-11-22T12:40:46;18600.72;;;-141.84;66.90
15260;BME280;34462;51.368;12.364;2023-11-22T12:43:14;18566.16;;;-141.84;67.59
15260;BME280;34462;51.368;12.364;2023-11-22T12:45:43;18610.88;;;-141.84;67.06
15260;BME280;34462;51.368;12.364;2023-11-22T12:48:24;18582.44;;;-141.84;67.12